Time;durP1;ratioP1;P1;durP2;ratioP2;P2;SDS_P1;SDS_P2;PMS_P1;PMS_P2;Temp;Humidity;BMP_temperature;BMP_pressure;BME280_temperature;BME280_humidity;BME280_pressure;Samples;Min_cycle;Max_cycle;Signal;HPM_P1;HPM_P2
2022/02/09 00:00:02;;;;;;;3.47;1.35;;;;;;;;;;6182402;23;20016;-77
2022/02/09 00:02:50;;;;;;;4.57;1.75;;;;;;;;;;6177200;23;20809;-78
2022/02/09 00:05:29;;;;;;;3.13;1.30;;;;;;;;;;6181558;23;20373;-78
2022/02/09 00:08:03;;;;;;;3.38;1.60;;;;;;;;;;6181532;23;20017;-77
2022/02/09 00:10:34;;;;;;;4.30;1.10;;;;;;;;;;6181927;23;20023;-77
2022/02/09 00:13:28;;;;;;;3.03;1.58;;;;;;;;;;6204566;23;20467;-78
2022/02/09 00:16:07;;;;;;;7.13;2.00;;;;;;;;;;6200866;23;20096;-78
2022/02/09 00:18:44;;;;;;;4.45;1.77;;;;;;;;;;6181101;23;20112;-77
2022/02/09 00:21:32;;;;;;;5.40;1.67;;;;;;;;;;6180548;23;20050;-78
2022/02/09 00:24:27;;;;;;;6.37;2.03;;;;;;;;;;6154713;23;20028;-78
2022/02/09 00:33:03;;;;;;;2.53;0.98;;;;;;;;;;6058043;23;20105;-77
2022/02/09 00:36:09;;;;;;;4.53;1.40;;;;;;;;;;6093118;23;20089;-77
2022/02/09 00:39:04;;;;;;;3.33;1.13;;;;;;;;;;6092091;23;20022;-78
2022/02/09 00:41:49;;;;;;;6.38;1.60;;;;;;;;;;6093864;23;20073;-77
2022/02/09 01:33:02;;;;;;;4.25;1.67;;;;;;;;;;6091522;23;20464;-77
2022/02/09 01:33:14;;;;;;;4.40;1.58;;;;;;;;;;6120846;23;20025;-78
2022/02/09 01:39:02;;;;;;;3.35;1.50;;;;;;;;;;6121618;23;20021;-78
2022/02/09 01:55:30;;;;;;;3.00;1.15;;;;;;;;;;6120663;23;20041;-77
2022/02/09 01:58:00;;;;;;;4.43;1.10;;;;;;;;;;6121456;23;20018;-78
2022/02/09 02:00:29;;;;;;;5.60;1.73;;;;;;;;;;6110295;23;20022;-77
2022/02/09 02:03:01;;;;;;;5.90;1.40;;;;;;;;;;6122003;23;20022;-78
2022/02/09 02:05:31;;;;;;;3.97;1.45;;;;;;;;;;6120022;23;20057;-78
2022/02/09 02:08:01;;;;;;;3.65;1.90;;;;;;;;;;6120083;23;20069;-78
2022/02/09 02:10:38;;;;;;;3.00;1.08;;;;;;;;;;6121700;23;20010;-78
2022/02/09 02:13:23;;;;;;;2.38;1.13;;;;;;;;;;6121105;23;20017;-77
2022/02/09 02:18:39;;;;;;;4.78;1.35;;;;;;;;;;6120971;23;20022;-77
2022/02/09 02:21:23;;;;;;;5.00;1.88;;;;;;;;;;6122117;23;20628;-77
2022/02/09 02:24:18;;;;;;;5.90;1.55;;;;;;;;;;6121572;23;20061;-78
2022/02/09 02:27:04;;;;;;;2.83;1.10;;;;;;;;;;6120331;23;20025;-77
2022/02/09 02:30:02;;;;;;;5.73;1.53;;;;;;;;;;6151095;23;20052;-77
2022/02/09 02:32:49;;;;;;;2.10;0.80;;;;;;;;;;6151976;23;20032;-77
2022/02/09 02:45:01;;;;;;;9.30;1.70;;;;;;;;;;6182514;23;20408;-77
2022/02/09 02:47:33;;;;;;;5.53;1.00;;;;;;;;;;6150806;23;20387;-78
2022/02/09 03:12:19;;;;;;;3.03;1.40;;;;;;;;;;6179800;23;20021;-78
2022/02/09 03:15:33;;;;;;;3.55;1.42;;;;;;;;;;6179585;23;20028;-78
2022/02/09 03:18:23;;;;;;;5.85;1.23;;;;;;;;;;6181221;23;20083;-78
2022/02/09 03:20:56;;;;;;;9.52;1.65;;;;;;;;;;6183273;23;20111;-78
2022/02/09 03:23:42;;;;;;;3.97;2.05;;;;;;;;;;6181948;23;20079;-78
2022/02/09 03:26:48;;;;;;;2.90;1.30;;;;;;;;;;6182633;23;20387;-78
2022/02/09 03:43:39;;;;;;;5.28;1.05;;;;;;;;;;6179962;23;20021;-77
2022/02/09 03:46:31;;;;;;;4.55;1.30;;;;;;;;;;6151635;23;20025;-78
2022/02/09 03:49:16;;;;;;;3.50;1.40;;;;;;;;;;6181439;23;20024;-77
2022/02/09 03:51:57;;;;;;;3.70;1.25;;;;;;;;;;6182099;23;20087;-77
2022/02/09 03:57:46;;;;;;;3.50;1.63;;;;;;;;;;6181161;23;20340;-78
2022/02/09 04:00:16;;;;;;;3.40;1.42;;;;;;;;;;6177877;23;20444;-78
2022/02/09 04:02:46;;;;;;;3.35;1.50;;;;;;;;;;6180635;23;20104;-78
2022/02/09 04:05:18;;;;;;;4.70;1.50;;;;;;;;;;6182374;23;20013;-77
2022/02/09 04:07:47;;;;;;;3.27;1.47;;;;;;;;;;6154819;23;20038;-77
2022/02/09 04:10:21;;;;;;;2.95;1.27;;;;;;;;;;6182171;23;20562;-78
2022/02/09 04:13:01;;;;;;;3.22;1.30;;;;;;;;;;6154192;23;20020;-78
2022/02/09 04:15:46;;;;;;;7.25;1.55;;;;;;;;;;6151556;23;20017;-78
2022/02/09 04:18:26;;;;;;;3.90;1.42;;;;;;;;;;6180467;23;20355;-77
2022/02/09 04:38:17;;;;;;;2.60;1.10;;;;;;;;;;6180500;23;20043;-77
2022/02/09 04:41:18;;;;;;;3.20;0.88;;;;;;;;;;6180282;23;20521;-78
2022/02/09 04:44:02;;;;;;;2.00;0.95;;;;;;;;;;6181065;23;20021;-78
2022/02/09 04:47:02;;;;;;;5.57;1.05;;;;;;;;;;6176716;23;20113;-77
2022/02/09 04:49:56;;;;;;;2.70;1.20;;;;;;;;;;6181692;23;20067;-78
2022/02/09 04:52:34;;;;;;;3.83;1.63;;;;;;;;;;6181168;23;20021;-77
2022/02/09 04:55:23;;;;;;;2.97;0.85;;;;;;;;;;6182087;23;20036;-77
2022/02/09 04:57:58;;;;;;;3.72;1.00;;;;;;;;;;6180693;23;20025;-77
2022/02/09 05:00:42;;;;;;;3.13;1.23;;;;;;;;;;6176298;23;20468;-77
2022/02/09 05:25:42;;;;;;;2.55;0.82;;;;;;;;;;6153921;23;20025;-77
2022/02/09 05:28:15;;;;;;;2.67;0.88;;;;;;;;;;6149404;23;20031;-77
2022/02/09 05:30:48;;;;;;;2.67;0.87;;;;;;;;;;6147725;23;20045;-77
2022/02/09 05:33:20;;;;;;;3.03;1.17;;;;;;;;;;6152122;23;20532;-76
2022/02/09 05:35:50;;;;;;;3.78;1.60;;;;;;;;;;6175905;23;20017;-77
2022/02/09 05:38:19;;;;;;;3.88;0.90;;;;;;;;;;6175268;23;20033;-77
2022/02/09 05:40:49;;;;;;;3.55;1.20;;;;;;;;;;6151210;23;20026;-77
2022/02/09 05:43:21;;;;;;;3.30;1.10;;;;;;;;;;6152409;23;20014;-77
2022/02/09 05:46:20;;;;;;;3.22;1.13;;;;;;;;;;6149532;23;20048;-78
2022/02/09 05:51:45;;;;;;;6.20;1.50;;;;;;;;;;6151554;23;20018;-76
2022/02/09 05:54:26;;;;;;;3.15;1.25;;;;;;;;;;6153653;23;20022;-78
2022/02/09 05:57:13;;;;;;;2.50;0.97;;;;;;;;;;6151859;23;20033;-77
2022/02/09 06:23:23;;;;;;;4.82;1.45;;;;;;;;;;6208583;22;20025;-83
2022/02/09 06:25:57;;;;;;;2.80;1.10;;;;;;;;;;6188889;23;20019;-81
2022/02/09 06:28:33;;;;;;;4.32;1.67;;;;;;;;;;6186598;23;20036;-81
2022/02/09 06:31:10;;;;;;;3.05;1.65;;;;;;;;;;6161745;23;20005;-81
2022/02/09 06:33:39;;;;;;;3.10;1.27;;;;;;;;;;6187175;23;20021;-81
2022/02/09 06:39:11;;;;;;;6.00;1.50;;;;;;;;;;6163400;23;20017;-81
2022/02/09 06:41:50;;;;;;;3.00;1.25;;;;;;;;;;6212840;23;20009;-81
2022/02/09 06:44:43;;;;;;;3.47;1.33;;;;;;;;;;6187696;23;20044;-81
2022/02/09 06:47:28;;;;;;;4.65;1.70;;;;;;;;;;6180274;23;20025;-80
2022/02/09 06:50:03;;;;;;;3.42;1.15;;;;;;;;;;6213336;23;19993;-81
2022/02/09 06:52:33;;;;;;;4.53;1.87;;;;;;;;;;6186488;23;20017;-81
2022/02/09 06:55:15;;;;;;;4.20;1.40;;;;;;;;;;6188682;23;20065;-82
2022/02/09 06:58:18;;;;;;;4.57;1.85;;;;;;;;;;6214025;23;20008;-81
2022/02/09 07:00:53;;;;;;;3.35;1.52;;;;;;;;;;6187963;23;20021;-81
2022/02/09 07:10:48;;;;;;;2.92;1.70;;;;;;;;;;6211793;23;20024;-80
2022/02/09 07:13:23;;;;;;;2.80;0.90;;;;;;;;;;6160890;23;20076;-81
2022/02/09 07:15:54;;;;;;;4.28;1.50;;;;;;;;;;6208661;23;20005;-81
2022/02/09 07:18:25;;;;;;;4.05;1.42;;;;;;;;;;6138116;23;20032;-81
2022/02/09 07:20:59;;;;;;;3.40;0.90;;;;;;;;;;6161487;23;20028;-81
2022/02/09 07:23:34;;;;;;;2.92;1.15;;;;;;;;;;6157013;23;20049;-81
2022/02/09 07:26:14;;;;;;;3.42;1.00;;;;;;;;;;6182116;23;20002;-81
2022/02/09 07:28:44;;;;;;;4.50;1.75;;;;;;;;;;6182264;23;20029;-81
2022/02/09 07:31:15;;;;;;;3.03;1.48;;;;;;;;;;6181182;23;20013;-81
2022/02/09 07:33:45;;;;;;;4.93;1.53;;;;;;;;;;6181398;23;20028;-81
2022/02/09 07:36:16;;;;;;;3.40;1.40;;;;;;;;;;6157781;23;20009;-81
2022/02/09 07:38:45;;;;;;;10.75;1.90;;;;;;;;;;6183682;23;20014;-81
2022/02/09 07:41:44;;;;;;;3.35;1.30;;;;;;;;;;6182138;23;20017;-81
2022/02/09 07:44:29;;;;;;;4.28;1.58;;;;;;;;;;6183104;23;20022;-80
2022/02/09 07:50:04;;;;;;;4.30;1.73;;;;;;;;;;6183853;23;20081;-82
2022/02/09 07:52:51;;;;;;;7.13;2.00;;;;;;;;;;6183914;23;20065;-81
2022/02/09 07:55:21;;;;;;;2.90;1.20;;;;;;;;;;6184456;23;20069;-82
2022/02/09 07:57:55;;;;;;;4.43;1.83;;;;;;;;;;6183013;23;20021;-81
2022/02/09 08:00:38;;;;;;;5.10;1.97;;;;;;;;;;6181680;23;20084;-81
2022/02/09 08:03:11;;;;;;;4.47;2.22;;;;;;;;;;6159268;23;20024;-81
2022/02/09 08:06:15;;;;;;;5.57;2.03;;;;;;;;;;6159075;23;20021;-81
2022/02/09 08:08:48;;;;;;;4.32;1.80;;;;;;;;;;6183223;23;20018;-81
2022/02/09 08:11:21;;;;;;;4.80;2.08;;;;;;;;;;6183780;23;20045;-81
2022/02/09 08:26:31;;;;;;;5.10;1.85;;;;;;;;;;6183603;23;20094;-81
2022/02/09 08:29:26;;;;;;;4.97;1.87;;;;;;;;;;6183034;23;20024;-81
2022/02/09 08:34:42;;;;;;;4.90;1.90;;;;;;;;;;6184086;23;19997;-80
2022/02/09 08:37:30;;;;;;;5.18;1.90;;;;;;;;;;6184171;23;20048;-81
2022/02/09 08:39:59;;;;;;;4.85;1.85;;;;;;;;;;6158723;23;20017;-81
2022/02/09 08:42:32;;;;;;;4.20;1.77;;;;;;;;;;6183738;23;20045;-82
2022/02/09 08:45:03;;;;;;;5.32;2.00;;;;;;;;;;6158752;23;20044;-81
2022/02/09 08:47:52;;;;;;;4.88;2.03;;;;;;;;;;6183232;23;20010;-81
2022/02/09 08:50:26;;;;;;;4.72;1.98;;;;;;;;;;6183239;23;20004;-82
2022/02/09 08:52:58;;;;;;;4.40;1.83;;;;;;;;;;6184373;23;19997;-81
2022/02/09 08:55:30;;;;;;;4.63;2.13;;;;;;;;;;6159536;23;20008;-81
2022/02/09 08:58:01;;;;;;;5.68;2.20;;;;;;;;;;6158709;23;20029;-80
2022/02/09 09:00:37;;;;;;;3.42;1.50;;;;;;;;;;6158636;23;20009;-82
2022/02/09 09:03:18;;;;;;;4.72;2.13;;;;;;;;;;6183574;23;20057;-80
2022/02/09 09:06:39;;;;;;;6.07;2.58;;;;;;;;;;6183491;23;20033;-81
2022/02/09 09:09:24;;;;;;;3.33;1.60;;;;;;;;;;6158724;23;20021;-81
2022/02/09 09:14:49;;;;;;;3.22;1.15;;;;;;;;;;6158847;23;20021;-81
2022/02/09 09:58:25;;;;;;;5.18;1.33;;;;;;;;;;6157976;23;20014;-81
2022/02/09 10:01:35;;;;;;;4.13;1.70;;;;;;;;;;6183036;23;20041;-81
2022/02/09 10:04:32;;;;;;;6.30;1.95;;;;;;;;;;6181974;23;20037;-81
2022/02/09 10:33:09;;;;;;;3.78;1.95;;;;;;;;;;6207323;23;20069;-80
2022/02/09 10:35:44;;;;;;;2.53;1.20;;;;;;;;;;6182659;23;20044;-80
2022/02/09 10:38:23;;;;;;;3.15;1.35;;;;;;;;;;6211051;23;20013;-80
2022/02/09 10:40:57;;;;;;;8.45;1.85;;;;;;;;;;6160176;23;20021;-81
2022/02/09 10:43:35;;;;;;;3.25;1.27;;;;;;;;;;6185909;23;20028;-81
2022/02/09 10:46:19;;;;;;;4.45;1.70;;;;;;;;;;6156813;23;20413;-80
2022/02/09 10:48:53;;;;;;;3.90;1.13;;;;;;;;;;6185105;23;20516;-81
2022/02/09 10:51:29;;;;;;;5.93;1.88;;;;;;;;;;6161081;23;20044;-81
2022/02/09 10:54:17;;;;;;;8.43;1.65;;;;;;;;;;6186179;23;20020;-81
2022/02/09 10:56:48;;;;;;;5.53;1.75;;;;;;;;;;6210768;23;20017;-81
2022/02/09 10:59:23;;;;;;;5.63;1.60;;;;;;;;;;6185435;23;20023;-81
2022/02/09 11:01:56;;;;;;;7.90;1.43;;;;;;;;;;6158038;23;20686;-81
2022/02/09 11:04:26;;;;;;;3.67;1.85;;;;;;;;;;6183133;23;20024;-81
2022/02/09 11:06:56;;;;;;;4.53;1.88;;;;;;;;;;6186201;23;20052;-81
2022/02/09 11:09:30;;;;;;;3.53;1.25;;;;;;;;;;6211196;23;20043;-81
2022/02/09 11:11:59;;;;;;;4.13;1.75;;;;;;;;;;6186295;23;20017;-80
2022/02/09 11:14:30;;;;;;;3.37;1.47;;;;;;;;;;6161778;23;20001;-81
2022/02/09 11:17:03;;;;;;;3.47;1.75;;;;;;;;;;6209980;23;20012;-81
2022/02/09 11:19:33;;;;;;;4.13;1.65;;;;;;;;;;6186337;23;20013;-81
2022/02/09 11:22:11;;;;;;;3.53;1.75;;;;;;;;;;6161791;23;20021;-80
2022/02/09 11:24:45;;;;;;;3.20;1.40;;;;;;;;;;6184745;23;20027;-81
2022/02/09 11:27:25;;;;;;;3.20;1.10;;;;;;;;;;6158513;23;20025;-81
2022/02/09 11:30:14;;;;;;;3.60;1.48;;;;;;;;;;6182462;23;20005;-80
2022/02/09 11:33:01;;;;;;;4.03;1.23;;;;;;;;;;6183491;23;20087;-81
2022/02/09 11:35:37;;;;;;;2.88;1.00;;;;;;;;;;6210374;23;20037;-80
2022/02/09 11:38:22;;;;;;;2.85;1.33;;;;;;;;;;6185803;23;20017;-81
2022/02/09 11:41:04;;;;;;;4.23;1.60;;;;;;;;;;6183690;23;20056;-80
2022/02/09 11:43:42;;;;;;;4.38;1.35;;;;;;;;;;6210547;23;20021;-81
2022/02/09 11:46:39;;;;;;;3.60;1.42;;;;;;;;;;6158791;23;20017;-80
2022/02/09 11:55:25;;;;;;;4.43;1.60;;;;;;;;;;6213466;23;20048;-81
2022/02/09 12:01:15;;;;;;;3.47;1.33;;;;;;;;;;6161354;23;20009;-82
2022/02/09 12:09:58;;;;;;;3.27;0.73;;;;;;;;;;6176368;23;20005;-81
2022/02/09 12:12:58;;;;;;;3.08;1.10;;;;;;;;;;6210681;23;20040;-81
2022/02/09 12:16:02;;;;;;;5.55;1.80;;;;;;;;;;6184102;23;20017;-80
2022/02/09 12:21:48;;;;;;;7.13;1.30;;;;;;;;;;6131285;23;20040;-81
2022/02/09 12:24:23;;;;;;;2.53;0.97;;;;;;;;;;6156271;23;20013;-81
2022/02/09 12:26:54;;;;;;;3.33;1.20;;;;;;;;;;6132804;23;20002;-80
2022/02/09 12:29:48;;;;;;;2.13;0.85;;;;;;;;;;6155962;23;20021;-81
2022/02/09 12:32:27;;;;;;;2.85;1.15;;;;;;;;;;6147584;23;20018;-80
2022/02/09 12:34:58;;;;;;;4.43;1.20;;;;;;;;;;6155983;23;20005;-81
2022/02/09 12:37:29;;;;;;;3.00;1.00;;;;;;;;;;6155253;23;20001;-81
2022/02/09 12:40:07;;;;;;;2.83;1.00;;;;;;;;;;6158119;23;20014;-81
2022/02/09 12:43:03;;;;;;;2.72;1.20;;;;;;;;;;6133973;23;20022;-82
2022/02/09 12:45:41;;;;;;;3.72;1.40;;;;;;;;;;6126453;23;20028;-81
2022/02/09 12:48:15;;;;;;;2.45;1.10;;;;;;;;;;6183966;23;20005;-82
2022/02/09 12:50:50;;;;;;;2.17;0.57;;;;;;;;;;6133814;23;20016;-81
2022/02/09 12:53:26;;;;;;;3.35;1.10;;;;;;;;;;6133614;23;20033;-81
2022/02/09 12:55:57;;;;;;;2.83;0.98;;;;;;;;;;6158649;23;20025;-81
2022/02/09 12:58:27;;;;;;;3.45;1.10;;;;;;;;;;6158047;23;20028;-82
2022/02/09 13:01:00;;;;;;;3.53;1.50;;;;;;;;;;6156011;23;20017;-81
2022/02/09 13:03:58;;;;;;;2.40;0.93;;;;;;;;;;6130082;23;20028;-82
2022/02/09 13:06:27;;;;;;;4.00;0.90;;;;;;;;;;6130324;23;20025;-79
2022/02/09 13:08:57;;;;;;;4.78;0.90;;;;;;;;;;6157580;23;20032;-78
2022/02/09 13:11:52;;;;;;;2.13;0.57;;;;;;;;;;6157013;23;20467;-80
2022/02/09 14:07:09;;;;;;;2.10;0.70;;;;;;;;;;6125345;23;20098;-79
2022/02/09 14:13:01;;;;;;;2.30;0.77;;;;;;;;;;6007929;23;20023;-80
2022/02/09 14:15:50;;;;;;;2.10;0.70;;;;;;;;;;6115016;23;20037;-80
2022/02/09 14:18:43;;;;;;;6.93;1.00;;;;;;;;;;6126322;23;20018;-80
2022/02/09 14:53:24;;;;;;;3.10;1.15;;;;;;;;;;6008528;23;20034;-80
2022/02/09 14:56:01;;;;;;;3.55;1.13;;;;;;;;;;6085838;23;20046;-79
2022/02/09 14:58:34;;;;;;;2.13;0.80;;;;;;;;;;6128052;23;20030;-79
2022/02/09 15:01:08;;;;;;;6.70;1.33;;;;;;;;;;6124196;23;20026;-80
2022/02/09 15:03:49;;;;;;;2.58;1.00;;;;;;;;;;6128904;23;20042;-78
2022/02/09 15:09:17;;;;;;;4.00;0.93;;;;;;;;;;6060242;23;20026;-80
2022/02/09 15:11:58;;;;;;;4.13;1.20;;;;;;;;;;6126895;23;20018;-79
2022/02/09 15:14:36;;;;;;;5.35;1.20;;;;;;;;;;6150905;23;20022;-79
2022/02/09 15:17:30;;;;;;;2.70;0.93;;;;;;;;;;6123782;23;20546;-79
2022/02/09 15:20:23;;;;;;;3.30;1.05;;;;;;;;;;6125511;23;20033;-78
2022/02/09 15:22:54;;;;;;;2.22;0.80;;;;;;;;;;6105345;23;20037;-82
2022/02/09 15:25:30;;;;;;;2.63;0.80;;;;;;;;;;6127037;23;20069;-78
2022/02/09 15:28:01;;;;;;;5.70;1.30;;;;;;;;;;6126443;23;20437;-79
2022/02/09 15:31:05;;;;;;;3.88;1.00;;;;;;;;;;6124366;23;20026;-79
2022/02/09 15:33:41;;;;;;;4.20;1.08;;;;;;;;;;6128353;23;20018;-79
2022/02/09 15:36:46;;;;;;;4.38;1.20;;;;;;;;;;6125668;23;20081;-79
2022/02/09 15:39:18;;;;;;;3.37;1.00;;;;;;;;;;6129070;23;20022;-79
2022/02/09 15:42:03;;;;;;;5.53;1.33;;;;;;;;;;6127513;23;20018;-79
2022/02/09 16:20:27;;;;;;;2.70;0.93;;;;;;;;;;6196939;23;20024;-79
2022/02/09 16:23:00;;;;;;;5.93;1.10;;;;;;;;;;6190261;23;20028;-79
2022/02/09 16:45:53;;;;;;;8.15;1.45;;;;;;;;;;6171612;23;20049;-79
2022/02/09 16:48:32;;;;;;;3.08;1.55;;;;;;;;;;6191571;23;20025;-78
2022/02/09 16:51:46;;;;;;;6.53;2.60;;;;;;;;;;6190666;23;20001;-77
2022/02/09 16:54:32;;;;;;;11.00;4.43;;;;;;;;;;6168847;23;20032;-79
2022/02/09 17:15:29;;;;;;;12.82;4.53;;;;;;;;;;6153555;23;20023;-76
2022/02/09 17:19:41;;;;;;;9.73;4.10;;;;;;;;;;6184330;23;20016;-77
2022/02/09 17:22:11;;;;;;;6.85;2.92;;;;;;;;;;6213002;23;20021;-77
2022/02/09 17:24:40;;;;;;;6.43;2.55;;;;;;;;;;6210635;23;20025;-78
2022/02/09 17:27:17;;;;;;;7.35;2.95;;;;;;;;;;6185892;23;20035;-77
2022/02/09 17:30:15;;;;;;;6.05;2.38;;;;;;;;;;6212175;23;20022;-77
2022/02/09 17:32:51;;;;;;;5.80;2.80;;;;;;;;;;6211442;23;20447;-76
2022/02/09 17:35:23;;;;;;;7.18;3.15;;;;;;;;;;6184183;23;20020;-76
2022/02/09 17:38:18;;;;;;;4.55;2.10;;;;;;;;;;6212531;23;20013;-76
2022/02/09 17:57:44;;;;;;;8.38;2.50;;;;;;;;;;6211855;23;20424;-77
2022/02/09 18:00:18;;;;;;;5.70;2.57;;;;;;;;;;6205219;23;20017;-76
2022/02/09 18:02:48;;;;;;;10.40;3.95;;;;;;;;;;6215032;23;20013;-79
2022/02/09 18:05:23;;;;;;;7.25;2.95;;;;;;;;;;6210432;23;20095;-78
2022/02/09 18:07:56;;;;;;;6.60;2.85;;;;;;;;;;6215327;23;20039;-77
2022/02/09 18:10:41;;;;;;;6.97;2.92;;;;;;;;;;6153458;23;20025;-77
2022/02/09 18:31:06;;;;;;;7.97;3.13;;;;;;;;;;5095236;27;20891;-78
2022/02/09 18:34:08;;;;;;;8.07;2.83;;;;;;;;;;5098831;28;20146;-78
2022/02/09 18:45:55;;;;;;;8.97;3.30;;;;;;;;;;5096535;28;20044;-76
2022/02/09 19:03:43;;;;;;;7.80;3.00;;;;;;;;;;4981491;28;20082;-76
2022/02/09 19:19:01;;;;;;;6.47;2.97;;;;;;;;;;5036056;28;20052;-78
2022/02/09 19:27:43;;;;;;;11.25;3.35;;;;;;;;;;5037575;28;20037;-78
2022/02/09 19:30:33;;;;;;;7.00;2.70;;;;;;;;;;5036844;28;20057;-78
2022/02/09 19:47:12;;;;;;;7.88;2.50;;;;;;;;;;5039899;28;20048;-78
2022/02/09 19:50:14;;;;;;;7.68;2.67;;;;;;;;;;5039356;28;20502;-78
2022/02/09 19:53:12;;;;;;;8.10;4.07;;;;;;;;;;5043962;28;20416;-78
2022/02/09 19:56:06;;;;;;;8.77;3.83;;;;;;;;;;5046908;28;20045;-78
2022/02/09 19:58:41;;;;;;;8.00;3.70;;;;;;;;;;5048136;28;20044;-78
2022/02/09 20:01:14;;;;;;;7.10;3.60;;;;;;;;;;5041632;28;20060;-77
2022/02/09 20:03:43;;;;;;;6.85;2.95;;;;;;;;;;5063931;28;20047;-78
2022/02/09 20:06:13;;;;;;;7.13;3.05;;;;;;;;;;5043408;28;20106;-78
2022/02/09 20:08:44;;;;;;;6.63;2.80;;;;;;;;;;5044410;28;20049;-78
2022/02/09 20:11:19;;;;;;;6.17;3.07;;;;;;;;;;5045172;28;20075;-78
2022/02/09 20:13:50;;;;;;;11.32;2.90;;;;;;;;;;5045339;28;20164;-77
2022/02/09 20:16:20;;;;;;;9.98;2.65;;;;;;;;;;5034552;28;20041;-77
2022/02/09 20:18:51;;;;;;;6.20;2.75;;;;;;;;;;5046248;28;20128;-78
2022/02/09 20:21:22;;;;;;;6.55;3.28;;;;;;;;;;5046586;28;20134;-78
2022/02/09 20:23:53;;;;;;;5.93;3.43;;;;;;;;;;5048583;28;20037;-78
2022/02/09 20:26:23;;;;;;;8.98;3.47;;;;;;;;;;5046155;28;20053;-78
2022/02/09 20:28:57;;;;;;;6.13;3.03;;;;;;;;;;5046634;28;20190;-77
2022/02/09 20:31:30;;;;;;;7.22;2.97;;;;;;;;;;5040364;28;20052;-77
2022/02/09 20:34:04;;;;;;;5.20;2.80;;;;;;;;;;5047947;28;20123;-77
2022/02/09 20:36:34;;;;;;;7.87;3.43;;;;;;;;;;5048580;28;20040;-77
2022/02/09 20:39:11;;;;;;;6.00;2.55;;;;;;;;;;5047673;28;20052;-77
2022/02/09 20:41:42;;;;;;;6.80;2.88;;;;;;;;;;5042664;28;20446;-78
2022/02/09 20:44:21;;;;;;;11.25;2.83;;;;;;;;;;5047954;28;20102;-78
2022/02/09 20:46:55;;;;;;;6.85;3.20;;;;;;;;;;5039101;28;20053;-77
2022/02/09 20:49:27;;;;;;;12.83;3.80;;;;;;;;;;5043874;28;20104;-78
2022/02/09 20:51:57;;;;;;;5.50;2.67;;;;;;;;;;5041279;28;20072;-78
2022/02/09 20:54:27;;;;;;;10.27;3.92;;;;;;;;;;5044118;28;20040;-78
2022/02/09 20:57:21;;;;;;;15.32;4.20;;;;;;;;;;5045882;28;20246;-78
2022/02/09 20:59:53;;;;;;;6.15;2.95;;;;;;;;;;5047080;28;20053;-78
2022/02/09 21:05:27;;;;;;;11.32;3.47;;;;;;;;;;5039955;28;20045;-77
2022/02/09 21:08:09;;;;;;;8.05;3.33;;;;;;;;;;5040106;28;20491;-78
2022/02/09 21:10:49;;;;;;;5.07;2.30;;;;;;;;;;5057091;28;20044;-78
2022/02/09 21:13:28;;;;;;;6.75;2.80;;;;;;;;;;5041201;28;20063;-77
2022/02/09 21:16:12;;;;;;;6.60;3.00;;;;;;;;;;5034692;28;20130;-78
2022/02/09 21:19:09;;;;;;;6.53;2.83;;;;;;;;;;5036870;28;20505;-78
2022/02/09 21:22:10;;;;;;;8.52;3.05;;;;;;;;;;5037909;28;20045;-77
2022/02/09 21:28:07;;;;;;;6.72;3.13;;;;;;;;;;5003555;28;20049;-78
2022/02/09 21:55:44;;;;;;;5.15;3.50;;;;;;;;;;5042805;28;20087;-78
2022/02/09 21:58:23;;;;;;;7.97;3.20;;;;;;;;;;5041758;28;20131;-77
2022/02/09 22:01:16;;;;;;;6.07;2.63;;;;;;;;;;5033436;28;20053;-77
2022/02/09 22:06:52;;;;;;;6.93;2.65;;;;;;;;;;5037365;28;20052;-78
2022/02/09 22:21:43;;;;;;;5.90;2.65;;;;;;;;;;5038558;28;20099;-77
2022/02/09 22:47:14;;;;;;;7.15;2.40;;;;;;;;;;5016702;28;20071;-78
2022/02/09 22:49:49;;;;;;;5.47;2.80;;;;;;;;;;5043642;28;20048;-77
2022/02/09 22:55:35;;;;;;;8.67;3.13;;;;;;;;;;5042314;28;20045;-77
2022/02/09 22:58:06;;;;;;;10.02;3.08;;;;;;;;;;5043247;28;20064;-77
2022/02/09 23:00:40;;;;;;;5.00;2.00;;;;;;;;;;5035328;28;20048;-78
2022/02/09 23:03:12;;;;;;;6.68;2.38;;;;;;;;;;5041489;28;20046;-77
2022/02/09 23:05:58;;;;;;;5.90;1.98;;;;;;;;;;5039921;28;20033;-77
2022/02/09 23:09:07;;;;;;;7.67;3.20;;;;;;;;;;5043966;28;20041;-77
2022/02/09 23:11:56;;;;;;;5.10;2.40;;;;;;;;;;5042090;28;20252;-77
2022/02/09 23:17:49;;;;;;;7.53;2.45;;;;;;;;;;5042384;28;20076;-77
2022/02/09 23:21:00;;;;;;;9.20;3.15;;;;;;;;;;5044621;28;20041;-77
